»·PEaware :: N900TS KSAN-KTNP

N900TS :: KSAN-KTNP

FLIGHT INFORMATION

Flight Status: Arrived
Operator: Privately registered:
United States
More flights under this callsign
Pilot: Vlad D. (11271)
Aircraft: SOCATA TBM-900
(TBM9)
More flights by this aircraft type
Origin: KSAN San Diego Intl-Lindbergh
United States
Destination: KTNP Twentynine Palms
United States
More flights between these airports :: More routes between these airports
Route: DCT
File this flight plan on PilotEdge
Remarks:
Altitude:
(Current/Filed)
11,500ft
Speed:
(Current/Filed)
220kts
Departed: 28-Mar-19 03:53 PM
Arrived: 28-Mar-19 04:26 PM
Distance/Time
Traveled:
105nm/0:33
Distance/Time
To Go:
Arrived

Flight Plot

Page will automatically refresh every two minutes.

Flight plan parsing failed; only flown route is shown


Map Options




Map Legend


Flown Route
Filed Route
Departure Airport
Arrival Airport
Navaid (VOR, NDB)
Fix

Horizontal Profiles

Position Reports

Time Latitude Longitude Heading Altitude Ground
Speed
28-Mar-19 15:26 32.732018 -117.176219 194 21ft 0kts
28-Mar-19 15:27 32.732018 -117.176219 194 21ft 0kts
28-Mar-19 15:28 32.732018 -117.176219 194 21ft 0kts
28-Mar-19 15:29 32.732018 -117.176219 194 21ft 0kts
28-Mar-19 15:30 32.732018 -117.176219 194 21ft 0kts
28-Mar-19 15:31 32.732018 -117.176219 194 21ft 0kts
28-Mar-19 15:32 32.732018 -117.176219 194 21ft 0kts
28-Mar-19 15:33 32.732018 -117.176219 194 21ft 0kts
28-Mar-19 15:34 32.732018 -117.176219 194 21ft 0kts
28-Mar-19 15:35 32.732018 -117.176219 194 21ft 0kts
28-Mar-19 15:36 32.732018 -117.176219 194 21ft 0kts
28-Mar-19 15:37 32.732018 -117.176219 194 21ft 0kts
28-Mar-19 15:38 32.732018 -117.176219 194 21ft 0kts
28-Mar-19 15:39 32.732018 -117.176219 194 21ft 0kts
28-Mar-19 15:40 32.732018 -117.176219 194 21ft 0kts
28-Mar-19 15:41 32.732018 -117.176219 194 21ft 0kts
28-Mar-19 15:42 32.732018 -117.176219 194 21ft 0kts
28-Mar-19 15:43 32.732018 -117.176219 194 21ft 0kts
28-Mar-19 15:44 32.732018 -117.176219 194 21ft 0kts
28-Mar-19 15:45 32.732018 -117.176219 194 21ft 0kts
28-Mar-19 15:47 32.732018 -117.176219 194 21ft 0kts
28-Mar-19 15:48 32.732018 -117.176219 194 21ft 0kts
28-Mar-19 15:49 32.732018 -117.176219 194 21ft 0kts
28-Mar-19 15:50 32.731262 -117.175694 144 21ft 1kts
28-Mar-19 15:51 32.731176 -117.175622 145 21ft 2kts
28-Mar-19 15:52 32.730670 -117.175323 161 20ft 9kts
28-Mar-19 15:53 32.731974 -117.182747 287 36ft 96kts
28-Mar-19 15:54 32.746591 -117.218851 301 1486ft 129kts
28-Mar-19 15:55 32.765545 -117.255018 301 3384ft 130kts
28-Mar-19 15:56 32.784564 -117.290470 301 5273ft 128kts
28-Mar-19 15:57 32.804113 -117.325994 301 7179ft 131kts
28-Mar-19 15:58 32.826940 -117.366574 301 8129ft 185kts
28-Mar-19 15:59 32.859136 -117.424336 301 8096ft 224kts
28-Mar-19 16:00 32.908543 -117.461944 23 7980ft 260kts
28-Mar-19 16:01 32.958010 -117.400213 42 8870ft 241kts
28-Mar-19 16:02 33.003080 -117.345133 40 10381ft 224kts
28-Mar-19 16:03 33.046610 -117.292264 39 11506ft 240kts
28-Mar-19 16:04 33.097785 -117.229910 40 11499ft 277kts
28-Mar-19 16:05 33.151344 -117.164511 40 11491ft 287kts
28-Mar-19 16:06 33.207652 -117.095665 40 11491ft 289kts
28-Mar-19 16:07 33.264042 -117.026578 41 11490ft 289kts
28-Mar-19 16:08 33.320151 -116.957682 42 11489ft 288kts
28-Mar-19 16:09 33.375780 -116.889241 43 11490ft 286kts
28-Mar-19 16:09 33.422047 -116.832183 43 11474ft 285kts
28-Mar-19 16:11 33.486497 -116.752585 42 11413ft 285kts
28-Mar-19 16:11 33.532472 -116.695703 42 11380ft 284kts
28-Mar-19 16:12 33.587484 -116.627517 42 11363ft 284kts
28-Mar-19 16:14 33.651810 -116.547616 42 11355ft 284kts
28-Mar-19 16:14 33.697736 -116.490458 42 11355ft 284kts
28-Mar-19 16:16 33.762152 -116.410134 42 11054ft 294kts
28-Mar-19 16:16 33.810286 -116.349977 43 10091ft 299kts
28-Mar-19 16:17 33.866493 -116.279604 42 8883ft 283kts
28-Mar-19 16:18 33.918638 -116.214229 42 8516ft 271kts
28-Mar-19 16:19 33.969378 -116.144880 42 7410ft 273kts
28-Mar-19 16:20 34.021407 -116.082070 35 6120ft 258kts
28-Mar-19 16:21 34.077809 -116.029808 34 4287ft 248kts
28-Mar-19 16:22 34.108417 -115.965531 82 3404ft 209kts
28-Mar-19 16:23 34.117376 -115.905907 32 2785ft 151kts
28-Mar-19 16:24 34.134849 -115.918342 267 2094ft 87kts
28-Mar-19 16:25 34.134411 -115.944494 269 1827ft 36kts
28-Mar-19 16:26 34.135204 -115.946894 87 1840ft 10kts
28-Mar-19 16:27 34.136173 -115.942891 77 1817ft 8kts
28-Mar-19 16:28 34.135971 -115.942517 179 1816ft 0kts
28-Mar-19 16:29 34.135971 -115.942517 179 1816ft 0kts

Navigation Log

Ident Type
Flight plan parsing failed, navigation log unavailable